createdAt,value
2018-07-16T00:00:44.261Z,100531.17
2018-07-16T00:01:47.675Z,100531.38
2018-07-16T00:02:51.258Z,100529.19
2018-07-16T00:03:54.674Z,100531.38
2018-07-16T00:04:58.116Z,100526.03
2018-07-16T00:06:01.538Z,100530.41
2018-07-16T00:07:04.931Z,100525.44
2018-07-16T00:08:08.346Z,100529.02
2018-07-16T00:09:11.819Z,100529.02
2018-07-16T00:10:15.248Z,100531.22
2018-07-16T00:11:18.691Z,100527.05
2018-07-16T00:12:22.123Z,100527.63
2018-07-16T00:13:25.496Z,100530.62
2018-07-16T00:14:29.035Z,100523.67
2018-07-16T00:15:32.424Z,100529.45
2018-07-16T00:16:35.798Z,100526.66
2018-07-16T00:17:39.210Z,100525.86
2018-07-16T00:18:42.619Z,100528.05
2018-07-16T00:19:46.033Z,100521.31
2018-07-16T00:20:49.432Z,100522.11
2018-07-16T00:21:52.832Z,100523.12
2018-07-16T00:22:56.232Z,100522.33
2018-07-16T00:23:59.641Z,100521.73
2018-07-16T00:25:03.100Z,100520.34
2018-07-16T00:26:06.744Z,100517.56
2018-07-16T00:27:10.167Z,100518.58
2018-07-16T00:28:13.573Z,100513.81
2018-07-16T00:29:16.964Z,100517.77
2018-07-16T00:30:20.380Z,100517.39
2018-07-16T00:31:23.756Z,100520.77
2018-07-16T00:32:27.176Z,100519.62
2018-07-16T00:33:30.569Z,100520.17
2018-07-16T00:34:33.956Z,100518.78
2018-07-16T00:35:37.338Z,100516.59
2018-07-16T00:36:40.754Z,100517.98
2018-07-16T00:37:44.151Z,100516.59
2018-07-16T00:38:47.540Z,100517.77
2018-07-16T00:39:50.969Z,100513.81
2018-07-16T00:40:54.396Z,100520.55
2018-07-16T00:41:57.786Z,100518.58
2018-07-16T00:43:01.211Z,100507.82
2018-07-16T00:44:04.769Z,100510.22
2018-07-16T00:45:08.187Z,100513.01
2018-07-16T00:46:11.585Z,100512.20
2018-07-16T00:47:14.958Z,100508.24
2018-07-16T00:48:18.342Z,100508.03
2018-07-16T00:49:21.731Z,100508.03
2018-07-16T00:50:25.117Z,100509.42
2018-07-16T00:51:28.523Z,100513.01
2018-07-16T00:52:31.918Z,100513.81
2018-07-16T00:53:35.385Z,100507.23
2018-07-16T00:54:38.786Z,100510.02
2018-07-16T00:55:42.306Z,100507.44
2018-07-16T00:56:45.738Z,100508.83
2018-07-16T00:57:49.134Z,100506.64
2018-07-16T00:58:52.595Z,100503.05
2018-07-16T00:59:55.969Z,100511.62
2018-07-16T01:00:59.358Z,100502.25
2018-07-16T01:02:02.821Z,100501.08
2018-07-16T01:03:06.270Z,100501.08
2018-07-16T01:04:09.739Z,100503.64
2018-07-16T01:05:13.176Z,100496.48
2018-07-16T01:06:16.607Z,100496.09
2018-07-16T01:07:20.080Z,100499.47
2018-07-16T01:08:23.446Z,100496.69
2018-07-16T01:09:26.870Z,100499.47
2018-07-16T01:10:30.273Z,100498.08
2018-07-16T01:11:33.700Z,100498.30
2018-07-16T01:12:37.104Z,100496.69
2018-07-16T01:13:40.548Z,100498.88
2018-07-16T01:14:43.938Z,100492.52
2018-07-16T01:15:47.592Z,100489.95
2018-07-16T01:16:51.069Z,100493.91
2018-07-16T01:17:54.477Z,100495.51
2018-07-16T01:18:57.984Z,100492.52
2018-07-16T01:20:01.892Z,100495.51
2018-07-16T01:21:05.303Z,100496.09
2018-07-16T01:22:08.686Z,100491.34
2018-07-16T01:23:12.051Z,100484.37
2018-07-16T01:24:15.499Z,100489.35
2018-07-16T01:25:18.888Z,100484.37
2018-07-16T01:26:22.335Z,100483.79
2018-07-16T01:27:25.714Z,100489.95
2018-07-16T01:28:29.108Z,100491.34
2018-07-16T01:29:33.359Z,100486.36
2018-07-16T01:30:36.750Z,100484.17
2018-07-16T01:31:40.177Z,100489.73
2018-07-16T01:32:43.560Z,100488.34
2018-07-16T01:33:46.944Z,100488.93
2018-07-16T01:34:50.347Z,100490.91
2018-07-16T01:35:53.801Z,100487.92
2018-07-16T01:36:57.207Z,100487.92
2018-07-16T01:38:00.620Z,100493.48
2018-07-16T01:39:04.284Z,100490.70
2018-07-16T01:40:07.755Z,100484.92
2018-07-16T01:41:11.170Z,100484.71
2018-07-16T01:42:14.547Z,100489.09
2018-07-16T01:43:17.929Z,100484.33
2018-07-16T01:44:21.293Z,100482.73
2018-07-16T01:45:24.708Z,100482.35
2018-07-16T01:46:28.140Z,100485.94
2018-07-16T01:47:31.560Z,100483.75
2018-07-16T01:48:35.005Z,100486.73
2018-07-16T01:49:38.370Z,100484.76
2018-07-16T01:50:41.826Z,100478.17
2018-07-16T01:51:45.222Z,100479.56
2018-07-16T01:52:48.620Z,100480.96
2018-07-16T01:53:52.047Z,100477.97
2018-07-16T01:54:55.462Z,100476.78
2018-07-16T01:55:58.903Z,100476.78
2018-07-16T01:57:02.374Z,100473.20
2018-07-16T01:58:05.943Z,100474.59
2018-07-16T01:59:09.346Z,100474.38
2018-07-16T02:00:12.778Z,100472.40
2018-07-16T02:01:16.184Z,100471.01
2018-07-16T02:02:19.616Z,100471.60
2018-07-16T02:03:24.574Z,100472.19
2018-07-16T02:04:27.949Z,100475.19
2018-07-16T02:05:31.348Z,100475.77
2018-07-16T02:06:34.752Z,100475.19
2018-07-16T02:07:38.376Z,100478.55
2018-07-16T02:08:41.795Z,100479.15
2018-07-16T02:09:45.213Z,100479.15
2018-07-16T02:10:48.632Z,100475.35
2018-07-16T02:11:52.072Z,100473.96
2018-07-16T02:12:55.482Z,100473.38
2018-07-16T02:13:58.932Z,100470.38
2018-07-16T02:15:02.532Z,100473.38
2018-07-16T02:16:05.983Z,100473.96
2018-07-16T02:17:09.362Z,100475.35
2018-07-16T02:18:13.520Z,100469.20
2018-07-16T02:19:16.904Z,100473.16
2018-07-16T02:20:20.335Z,100473.16
2018-07-16T02:21:23.744Z,100470.16
2018-07-16T02:22:27.187Z,100473.75
2018-07-16T02:23:30.620Z,100480.33
2018-07-16T02:24:34.053Z,100482.90
2018-07-16T02:25:37.472Z,100480.12
2018-07-16T02:26:40.879Z,100476.74
2018-07-16T02:27:44.260Z,100479.52
2018-07-16T02:28:47.652Z,100477.75
2018-07-16T02:29:51.063Z,100474.55
2018-07-16T02:30:54.456Z,100476.53
2018-07-16T02:31:57.863Z,100473.16
2018-07-16T02:33:01.269Z,100476.16
2018-07-16T02:34:04.740Z,100472.57
2018-07-16T02:35:08.146Z,100468.39
2018-07-16T02:36:11.552Z,100466.41
2018-07-16T02:37:14.959Z,100470.00
2018-07-16T02:38:18.357Z,100466.41
2018-07-16T02:39:21.759Z,100463.25
2018-07-16T02:40:25.260Z,100463.46
2018-07-16T02:41:28.643Z,100471.22
2018-07-16T02:42:32.059Z,100470.42
2018-07-16T02:43:35.476Z,100463.46
2018-07-16T02:44:38.927Z,100465.87
2018-07-16T02:45:42.343Z,100467.05
2018-07-16T02:46:46.351Z,100464.27
2018-07-16T02:47:49.803Z,100463.46
2018-07-16T02:48:53.253Z,100465.28
2018-07-16T02:49:56.712Z,100464.48
2018-07-16T02:51:00.120Z,100465.87
2018-07-16T02:52:03.543Z,100464.48
2018-07-16T02:53:06.960Z,100467.26
2018-07-16T02:54:10.402Z,100464.48
2018-07-16T02:55:13.896Z,100470.05
2018-07-16T02:56:17.355Z,100471.44
2018-07-16T02:57:20.708Z,100470.63
2018-07-16T02:58:24.094Z,100473.63
2018-07-16T02:59:27.553Z,100468.06
2018-07-16T03:00:31.340Z,100470.25
2018-07-16T03:01:35.204Z,100473.84
2018-07-16T03:02:39.743Z,100476.03
2018-07-16T03:03:43.198Z,100474.05
2018-07-16T03:04:46.577Z,100472.87
2018-07-16T03:05:49.995Z,100481.80
2018-07-16T03:06:53.397Z,100471.05
2018-07-16T03:07:56.798Z,100477.21
2018-07-16T03:09:00.230Z,100478.02
2018-07-16T03:10:03.818Z,100482.19
2018-07-16T03:11:07.267Z,100474.22
2018-07-16T03:12:10.702Z,100478.81
2018-07-16T03:13:14.140Z,100477.00
2018-07-16T03:14:17.687Z,100481.17
2018-07-16T03:15:21.129Z,100480.58
2018-07-16T03:16:24.599Z,100479.78
2018-07-16T03:17:28.069Z,100478.98
2018-07-16T03:18:31.509Z,100485.14
2018-07-16T03:19:34.937Z,100485.34
2018-07-16T03:20:38.324Z,100482.56
2018-07-16T03:21:41.719Z,100479.19
2018-07-16T03:22:45.106Z,100481.97
2018-07-16T03:23:48.534Z,100480.58
2018-07-16T03:24:51.914Z,100482.56
2018-07-16T03:25:55.327Z,100481.38
2018-07-16T03:26:58.756Z,100482.98
2018-07-16T03:28:02.209Z,100477.21
2018-07-16T03:29:05.640Z,100480.58
2018-07-16T03:30:09.069Z,100482.98
2018-07-16T03:31:12.461Z,100485.56
2018-07-16T03:32:15.856Z,100484.37
2018-07-16T03:33:19.395Z,100480.20
2018-07-16T03:34:22.809Z,100483.20
2018-07-16T03:35:26.193Z,100484.83
2018-07-16T03:36:29.718Z,100481.80
2018-07-16T03:37:33.160Z,100484.00
2018-07-16T03:38:36.731Z,100475.09
2018-07-16T03:39:40.142Z,100479.27
2018-07-16T03:40:43.622Z,100473.70
2018-07-16T03:41:47.113Z,100477.04
2018-07-16T03:42:50.520Z,100473.45
2018-07-16T03:43:53.936Z,100474.26
2018-07-16T03:44:57.333Z,100475.65
2018-07-16T03:46:00.992Z,100478.44
2018-07-16T03:47:04.461Z,100474.84
2018-07-16T03:48:07.902Z,100479.02
2018-07-16T03:49:11.296Z,100478.44
2018-07-16T03:50:14.695Z,100476.24
2018-07-16T03:51:18.076Z,100475.65
2018-07-16T03:52:21.488Z,100477.87
2018-07-16T03:53:24.973Z,100479.27
2018-07-16T03:54:28.386Z,100483.44
2018-07-16T03:55:31.892Z,100479.02
2018-07-16T03:56:35.308Z,100487.38
2018-07-16T03:57:38.720Z,100478.81
2018-07-16T03:58:42.127Z,100484.37
2018-07-16T03:59:45.526Z,100483.79
2018-07-16T04:00:48.946Z,100482.77
2018-07-16T04:01:52.350Z,100486.36
2018-07-16T04:02:55.811Z,100483.95
2018-07-16T04:03:59.209Z,100482.35
2018-07-16T04:05:02.620Z,100481.77
2018-07-16T04:06:06.053Z,100489.09
2018-07-16T04:07:09.578Z,100485.14
2018-07-16T04:08:13.156Z,100489.09
2018-07-16T04:09:16.571Z,100480.54
2018-07-16T04:10:19.968Z,100486.10
2018-07-16T04:11:23.402Z,100488.09
2018-07-16T04:12:26.852Z,100491.45
2018-07-16T04:13:30.252Z,100487.28
2018-07-16T04:14:33.629Z,100491.45
2018-07-16T04:15:37.020Z,100490.66
2018-07-16T04:16:40.460Z,100488.84
2018-07-16T04:17:43.858Z,100486.81
2018-07-16T04:18:47.261Z,100489.14
2018-07-16T04:19:50.664Z,100492.30
2018-07-16T04:20:54.099Z,100495.03
2018-07-16T04:21:57.509Z,100492.63
2018-07-16T04:23:00.921Z,100490.44
2018-07-16T04:24:04.380Z,100482.09
2018-07-16T04:25:07.771Z,100486.64
2018-07-16T04:26:11.198Z,100487.02
2018-07-16T04:27:14.585Z,100486.38
2018-07-16T04:28:17.992Z,100487.70
2018-07-16T04:29:21.399Z,100489.04
2018-07-16T04:30:24.823Z,100488.34
2018-07-16T04:31:28.265Z,100490.59
2018-07-16T04:32:31.983Z,100485.94
2018-07-16T04:33:35.380Z,100485.09
2018-07-16T04:34:38.761Z,100493.72
2018-07-16T04:35:42.185Z,100487.89
2018-07-16T04:36:45.696Z,100489.60
2018-07-16T04:37:49.498Z,100488.34
2018-07-16T04:38:52.974Z,100486.68
2018-07-16T04:39:56.446Z,100488.45
2018-07-16T04:40:59.801Z,100484.28
2018-07-16T04:42:03.596Z,100480.48
2018-07-16T04:43:08.823Z,100481.66
2018-07-16T04:44:12.366Z,100481.22
2018-07-16T04:45:15.812Z,100478.45
2018-07-16T04:46:19.616Z,100479.41
2018-07-16T04:47:22.992Z,100482.31
2018-07-16T04:48:26.494Z,100478.95
2018-07-16T04:49:29.885Z,100476.54
2018-07-16T04:50:33.284Z,100484.66
2018-07-16T04:51:37.240Z,100475.89
2018-07-16T04:52:40.678Z,100475.68
2018-07-16T04:53:45.301Z,100479.64
2018-07-16T04:54:48.681Z,100476.64
2018-07-16T04:55:52.113Z,100479.20
2018-07-16T04:56:55.539Z,100478.41
2018-07-16T04:57:58.987Z,100474.98
2018-07-16T04:59:02.395Z,100470.59
2018-07-16T05:00:06.319Z,100479.52
2018-07-16T05:01:09.960Z,100478.72
2018-07-16T05:02:13.423Z,100482.05
2018-07-16T05:03:17.127Z,100481.03
2018-07-16T05:04:20.643Z,100481.41
2018-07-16T05:05:24.189Z,100478.41
2018-07-16T05:06:27.616Z,100480.61
2018-07-16T05:07:31.104Z,100474.03
2018-07-16T05:08:34.779Z,100475.17
2018-07-16T05:09:38.188Z,100481.91
2018-07-16T05:10:41.658Z,100479.12
2018-07-16T05:11:45.063Z,100477.95
2018-07-16T05:12:48.667Z,100478.48
2018-07-16T05:13:52.182Z,100479.28
2018-07-16T05:14:55.706Z,100476.88
2018-07-16T05:15:59.154Z,100479.44
2018-07-16T05:17:02.577Z,100476.44
2018-07-16T05:18:06.029Z,100470.42
2018-07-16T05:19:09.497Z,100476.34
2018-07-16T05:20:13.189Z,100468.60
2018-07-16T05:21:16.594Z,100469.93
2018-07-16T05:22:20.012Z,100467.73
2018-07-16T05:23:23.472Z,100469.12
2018-07-16T05:24:26.940Z,100468.76
2018-07-16T05:25:30.498Z,100467.16
2018-07-16T05:26:33.996Z,100465.18
2018-07-16T05:27:37.441Z,100461.23
2018-07-16T05:28:41.064Z,100458.08
2018-07-16T05:29:44.850Z,100459.25
2018-07-16T05:30:48.268Z,100460.27
2018-07-16T05:31:51.982Z,100458.88
2018-07-16T05:32:55.381Z,100450.12
2018-07-16T05:33:59.048Z,100464.44
2018-07-16T05:35:02.466Z,100458.52
2018-07-16T05:36:05.938Z,100462.09
2018-07-16T05:37:09.360Z,100453.27
2018-07-16T05:38:12.824Z,100449.09
2018-07-16T05:39:16.232Z,100451.28
2018-07-16T05:40:19.942Z,100454.65
2018-07-16T05:41:23.368Z,100459.03
2018-07-16T05:42:26.753Z,100461.59
2018-07-16T05:43:30.222Z,100456.63
2018-07-16T05:44:33.641Z,100457.42
2018-07-16T05:45:37.047Z,100464.00
2018-07-16T05:46:40.460Z,100460.20
2018-07-16T05:47:43.911Z,100463.63
2018-07-16T05:48:47.341Z,100458.44
2018-07-16T05:49:50.772Z,100461.59
2018-07-16T05:50:54.178Z,100461.38
2018-07-16T05:51:57.596Z,100458.81
2018-07-16T05:53:01.034Z,100465.55
2018-07-16T05:54:04.475Z,100468.11
2018-07-16T05:55:07.940Z,100465.33
2018-07-16T05:56:11.363Z,100462.67
2018-07-16T05:57:14.787Z,100466.05
2018-07-16T05:58:18.388Z,100461.66
2018-07-16T05:59:21.877Z,100465.61
2018-07-16T06:00:25.262Z,100465.02
2018-07-16T06:01:28.676Z,100461.02
2018-07-16T06:02:32.279Z,100464.16
2018-07-16T06:03:35.838Z,100465.18
2018-07-16T06:04:39.368Z,100459.19
2018-07-16T06:05:43.070Z,100465.55
2018-07-16T06:06:46.493Z,100464.16
2018-07-16T06:07:49.878Z,100464.16
2018-07-16T06:08:53.381Z,100465.18
2018-07-16T06:09:56.890Z,100465.77
2018-07-16T06:11:00.565Z,100465.39
2018-07-16T06:12:04.169Z,100462.83
2018-07-16T06:13:07.731Z,100465.61
2018-07-16T06:14:11.364Z,100470.36
2018-07-16T06:15:15.005Z,100470.14
2018-07-16T06:16:18.532Z,100464.59
2018-07-16T06:17:21.953Z,100469.72
2018-07-16T06:18:25.368Z,100466.94
2018-07-16T06:19:28.796Z,100469.12
2018-07-16T06:20:32.211Z,100470.30
2018-07-16T06:21:35.633Z,100461.91
2018-07-16T06:22:39.262Z,100464.09
2018-07-16T06:23:42.668Z,100469.81
2018-07-16T06:24:46.109Z,100466.56
2018-07-16T06:25:49.688Z,100469.50
2018-07-16T06:26:53.079Z,100464.69
2018-07-16T06:27:56.535Z,100468.41
2018-07-16T06:29:00.035Z,100463.45
2018-07-16T06:30:03.571Z,100464.03
2018-07-16T06:31:07.111Z,100463.08
2018-07-16T06:32:10.676Z,100460.89
2018-07-16T06:33:14.116Z,100463.59
2018-07-16T06:34:17.535Z,100467.39
2018-07-16T06:35:20.940Z,100465.80
2018-07-16T06:36:24.322Z,100465.58
2018-07-16T06:37:27.765Z,100461.63
2018-07-16T06:38:31.200Z,100463.81
2018-07-16T06:39:34.619Z,100464.19
2018-07-16T06:40:38.061Z,100461.99
2018-07-16T06:41:41.738Z,100464.77
2018-07-16T06:42:45.191Z,100461.31
2018-07-16T06:43:48.690Z,100463.87
2018-07-16T06:44:52.100Z,100466.44
2018-07-16T06:45:55.567Z,100461.84
2018-07-16T06:46:59.020Z,100460.45
2018-07-16T06:48:02.521Z,100464.03
2018-07-16T06:49:05.948Z,100459.28
2018-07-16T06:50:09.467Z,100465.14
2018-07-16T06:51:12.840Z,100462.70
2018-07-16T06:52:16.310Z,100454.74
2018-07-16T06:53:19.760Z,100456.81
2018-07-16T06:54:23.240Z,100457.83
2018-07-16T06:55:26.670Z,100458.48
2018-07-16T06:56:30.098Z,100459.50
2018-07-16T06:57:33.693Z,100459.93
2018-07-16T06:58:37.090Z,100456.78
2018-07-16T06:59:40.478Z,100455.83
2018-07-16T07:00:43.922Z,100456.94
2018-07-16T07:01:47.423Z,100454.37
2018-07-16T07:02:50.859Z,100460.15
2018-07-16T07:03:55.016Z,100459.56
2018-07-16T07:04:58.452Z,100460.80
2018-07-16T07:06:01.836Z,100461.23
2018-07-16T07:07:05.272Z,100458.45
2018-07-16T07:08:08.937Z,100459.03
2018-07-16T07:09:12.355Z,100457.65
2018-07-16T07:10:15.758Z,100453.33
2018-07-16T07:11:19.148Z,100461.66
2018-07-16T07:12:22.557Z,100457.49
2018-07-16T07:13:25.946Z,100460.86
2018-07-16T07:14:29.330Z,100463.05
2018-07-16T07:15:32.790Z,100457.49
2018-07-16T07:16:36.194Z,100455.30
2018-07-16T07:17:39.772Z,100461.07
2018-07-16T07:18:43.173Z,100461.07
2018-07-16T07:19:46.566Z,100455.52
2018-07-16T07:20:49.947Z,100450.55
2018-07-16T07:21:53.356Z,100444.41
2018-07-16T07:22:56.892Z,100453.54
2018-07-16T07:24:00.529Z,100455.73
2018-07-16T07:25:04.098Z,100450.77
2018-07-16T07:26:07.547Z,100453.76
2018-07-16T07:27:10.938Z,100454.93
2018-07-16T07:28:14.383Z,100456.53
2018-07-16T07:29:17.795Z,100459.31
2018-07-16T07:30:21.202Z,100459.31
2018-07-16T07:31:24.622Z,100452.37
2018-07-16T07:32:28.030Z,100449.00
2018-07-16T07:33:31.637Z,100456.78
2018-07-16T07:34:35.035Z,100452.03
2018-07-16T07:35:38.451Z,100452.61
2018-07-16T07:36:41.942Z,100451.78
2018-07-16T07:37:45.555Z,100449.84
2018-07-16T07:38:49.089Z,100444.28
2018-07-16T07:39:52.528Z,100447.27
2018-07-16T07:40:55.926Z,100447.06
2018-07-16T07:41:59.502Z,100441.72
2018-07-16T07:43:03.043Z,100443.11
2018-07-16T07:44:06.531Z,100446.47
2018-07-16T07:45:10.003Z,100445.30
2018-07-16T07:46:13.519Z,100440.33
2018-07-16T07:47:16.968Z,100447.86
2018-07-16T07:48:20.391Z,100445.88
2018-07-16T07:49:23.822Z,100441.13
2018-07-16T07:50:27.248Z,100443.91
2018-07-16T07:51:30.674Z,100451.66
2018-07-16T07:52:34.117Z,100444.71
2018-07-16T07:53:37.586Z,100440.33
2018-07-16T07:54:41.164Z,100441.72
2018-07-16T07:55:44.546Z,100443.91
2018-07-16T07:56:47.983Z,100445.52
2018-07-16T07:57:51.396Z,100436.38
2018-07-16T07:58:54.843Z,100434.99
2018-07-16T07:59:58.236Z,100433.60
2018-07-16T08:01:01.692Z,100439.95
2018-07-16T08:02:05.241Z,100439.16
2018-07-16T08:03:08.680Z,100433.81
2018-07-16T08:04:12.104Z,100426.66
2018-07-16T08:05:15.545Z,100433.02
2018-07-16T08:06:18.992Z,100434.99
2018-07-16T08:07:22.438Z,100436.59
2018-07-16T08:08:25.856Z,100428.84
2018-07-16T08:09:29.321Z,100430.23
2018-07-16T08:10:32.781Z,100434.41
2018-07-16T08:11:36.340Z,100432.42
2018-07-16T08:12:39.764Z,100430.23
2018-07-16T08:13:43.354Z,100426.66
2018-07-16T08:14:46.732Z,100429.65
2018-07-16T08:15:50.219Z,100428.26
2018-07-16T08:16:53.658Z,100433.23
2018-07-16T08:17:57.147Z,100428.26
2018-07-16T08:19:00.612Z,100431.03
2018-07-16T08:20:04.621Z,100429.86
2018-07-16T08:21:08.126Z,100430.45
2018-07-16T08:22:11.526Z,100428.26
2018-07-16T08:23:14.983Z,100419.92
2018-07-16T08:24:18.563Z,100425.70
2018-07-16T08:25:21.992Z,100424.09
2018-07-16T08:26:25.417Z,100418.97
2018-07-16T08:27:28.888Z,100419.92
2018-07-16T08:28:32.324Z,100422.33
2018-07-16T08:29:35.760Z,100423.72
2018-07-16T08:30:39.195Z,100418.75
2018-07-16T08:31:42.754Z,100420.73
2018-07-16T08:32:46.575Z,100418.75
2018-07-16T08:33:50.023Z,100418.16
2018-07-16T08:34:53.431Z,100422.92
2018-07-16T08:35:56.853Z,100426.72
2018-07-16T08:37:00.270Z,100425.91
2018-07-16T08:38:03.727Z,100430.08
2018-07-16T08:39:07.242Z,100429.49
2018-07-16T08:40:10.691Z,100428.69
2018-07-16T08:41:14.180Z,100433.66
2018-07-16T08:42:17.790Z,100425.33
2018-07-16T08:43:21.214Z,100430.08
2018-07-16T08:44:24.602Z,100427.73
2018-07-16T08:45:28.070Z,100426.93
2018-07-16T08:46:32.042Z,100431.90
2018-07-16T08:47:35.445Z,100429.70
2018-07-16T08:48:38.848Z,100423.56
2018-07-16T08:49:42.747Z,100425.54
2018-07-16T08:50:46.155Z,100427.73
2018-07-16T08:51:49.575Z,100426.34
2018-07-16T08:52:53.039Z,100427.95
2018-07-16T08:53:56.502Z,100424.95
2018-07-16T08:54:59.921Z,100427.14
2018-07-16T08:56:03.708Z,100427.73
2018-07-16T08:57:07.148Z,100425.16
2018-07-16T08:58:10.574Z,100426.56
2018-07-16T08:59:14.063Z,100421.00
2018-07-16T09:00:17.475Z,100424.02
2018-07-16T09:01:20.878Z,100418.22
2018-07-16T09:02:24.319Z,100421.00
2018-07-16T09:03:27.720Z,100422.63
2018-07-16T09:04:31.123Z,100417.88
2018-07-16T09:05:34.530Z,100427.66
2018-07-16T09:06:38.112Z,100429.27
2018-07-16T09:07:41.510Z,100424.08
2018-07-16T09:08:45.175Z,100426.27
2018-07-16T09:09:48.595Z,100430.81
2018-07-16T09:10:52.103Z,100429.05
2018-07-16T09:11:55.499Z,100428.03
2018-07-16T09:12:58.909Z,100424.67
2018-07-16T09:14:02.341Z,100426.86
2018-07-16T09:15:05.815Z,100433.22
2018-07-16T09:16:09.256Z,100431.40
2018-07-16T09:17:12.724Z,100423.06
2018-07-16T09:18:16.132Z,100424.45
2018-07-16T09:19:19.733Z,100423.86
2018-07-16T09:20:23.140Z,100423.65
2018-07-16T09:21:26.578Z,100425.25
2018-07-16T09:22:30.431Z,100422.27
2018-07-16T09:23:33.991Z,100423.86
2018-07-16T09:24:37.417Z,100423.86
2018-07-16T09:25:40.848Z,100423.06
2018-07-16T09:26:44.249Z,100423.06
2018-07-16T09:27:47.663Z,100428.84
2018-07-16T09:28:51.138Z,100426.64
2018-07-16T09:29:54.612Z,100420.50
2018-07-16T09:30:57.990Z,100425.84
2018-07-16T09:32:01.435Z,100430.22
2018-07-16T09:33:04.893Z,100423.28
2018-07-16T09:34:08.936Z,100418.52
2018-07-16T09:35:12.367Z,100426.86
2018-07-16T09:36:15.834Z,100428.84
2018-07-16T09:37:19.256Z,100424.08
2018-07-16T09:38:22.689Z,100428.84
2018-07-16T09:39:26.082Z,100423.28
2018-07-16T09:40:29.563Z,100419.91
2018-07-16T09:41:32.996Z,100426.27
2018-07-16T09:42:36.504Z,100424.88
2018-07-16T09:43:39.949Z,100420.72
2018-07-16T09:44:43.384Z,100420.72
2018-07-16T09:45:46.814Z,100419.78
2018-07-16T09:46:50.230Z,100414.81
2018-07-16T09:47:53.824Z,100411.66
2018-07-16T09:48:57.264Z,100410.65
2018-07-16T09:50:00.712Z,100407.63
2018-07-16T09:51:04.128Z,100408.67
2018-07-16T09:52:07.560Z,100410.86
2018-07-16T09:53:10.942Z,100411.45
2018-07-16T09:54:14.386Z,100410.65
2018-07-16T09:55:18.025Z,100404.50
2018-07-16T09:56:21.486Z,100405.89
2018-07-16T09:57:24.861Z,100409.47
2018-07-16T09:58:28.330Z,100403.11
2018-07-16T09:59:31.756Z,100408.88
2018-07-16T10:00:40.664Z,100408.88
2018-07-16T10:01:46.068Z,100396.37
2018-07-16T10:02:49.676Z,100402.52
2018-07-16T10:03:53.098Z,100402.52
2018-07-16T10:04:56.509Z,100403.33
2018-07-16T10:05:59.939Z,100400.55
2018-07-16T10:07:03.388Z,100401.94
2018-07-16T10:08:06.830Z,100394.99
2018-07-16T10:09:10.840Z,100394.99
2018-07-16T10:10:14.290Z,100396.37
2018-07-16T10:11:17.682Z,100393.02
2018-07-16T10:12:21.581Z,100393.60
2018-07-16T10:13:25.191Z,100392.80
2018-07-16T10:14:28.905Z,100390.61
2018-07-16T10:15:32.932Z,100390.02
2018-07-16T10:16:36.359Z,100392.43
2018-07-16T10:17:39.797Z,100392.22
2018-07-16T10:18:43.199Z,100386.07
2018-07-16T10:19:46.644Z,100386.88
2018-07-16T10:20:50.053Z,100388.05
2018-07-16T10:21:53.457Z,100381.69
2018-07-16T10:22:56.840Z,100379.71
2018-07-16T10:24:00.253Z,100383.93
2018-07-16T10:25:03.679Z,100387.52
2018-07-16T10:26:07.372Z,100383.55
2018-07-16T10:27:10.785Z,100383.55
2018-07-16T10:28:14.210Z,100385.53
2018-07-16T10:29:17.867Z,100382.97
2018-07-16T10:30:21.512Z,100382.17
2018-07-16T10:31:25.420Z,100378.59
2018-07-16T10:32:28.811Z,100375.81
2018-07-16T10:33:32.317Z,100384.14
2018-07-16T10:34:35.916Z,100375.22
2018-07-16T10:35:39.486Z,100377.41
2018-07-16T10:36:42.892Z,100379.39
2018-07-16T10:37:46.405Z,100373.83
2018-07-16T10:38:53.707Z,100368.86
2018-07-16T10:40:01.467Z,100376.61
2018-07-16T10:41:08.402Z,100377.20
2018-07-16T10:42:11.968Z,100378.00
2018-07-16T10:43:15.632Z,100380.78
2018-07-16T10:44:19.557Z,100376.61
2018-07-16T10:45:23.125Z,100378.80
2018-07-16T10:46:26.807Z,100378.00
2018-07-16T10:47:30.379Z,100380.99
2018-07-16T10:48:33.948Z,100378.00
2018-07-16T10:49:37.453Z,100375.44
2018-07-16T10:50:41.363Z,100374.05
2018-07-16T10:51:44.974Z,100372.66
2018-07-16T10:52:48.439Z,100365.70
2018-07-16T10:53:52.272Z,100369.88
2018-07-16T10:54:55.907Z,100374.05
2018-07-16T10:55:59.917Z,100367.69
2018-07-16T10:57:03.507Z,100370.68
2018-07-16T10:58:07.269Z,100365.70
2018-07-16T10:59:10.780Z,100372.66
2018-07-16T11:00:14.256Z,100368.70
2018-07-16T11:01:18.071Z,100368.48
2018-07-16T11:02:21.680Z,100370.68
2018-07-16T11:03:25.368Z,100368.70
2018-07-16T11:04:28.901Z,100365.33
2018-07-16T11:05:33.009Z,100371.69
2018-07-16T11:06:36.377Z,100364.53
2018-07-16T11:07:39.797Z,100364.53
2018-07-16T11:08:43.184Z,100368.11
2018-07-16T11:09:46.600Z,100362.55
2018-07-16T11:10:50.028Z,100367.53
2018-07-16T11:11:53.473Z,100359.78
2018-07-16T11:12:56.884Z,100365.92
2018-07-16T11:14:00.309Z,100359.99
2018-07-16T11:15:03.856Z,100356.41
2018-07-16T11:16:07.192Z,100357.80
2018-07-16T11:17:10.654Z,100364.96
2018-07-16T11:18:14.087Z,100357.80
2018-07-16T11:19:17.484Z,100362.18
2018-07-16T11:20:21.001Z,100359.19
2018-07-16T11:21:24.436Z,100359.41
2018-07-16T11:22:28.081Z,100353.05
2018-07-16T11:23:31.497Z,100356.63
2018-07-16T11:24:34.894Z,100355.23
2018-07-16T11:25:38.336Z,100360.79
2018-07-16T11:26:41.747Z,100359.41
2018-07-16T11:27:45.149Z,100353.05
2018-07-16T11:28:48.560Z,100356.03
2018-07-16T11:29:51.998Z,100358.02
2018-07-16T11:30:55.406Z,100354.64
2018-07-16T11:31:58.851Z,100360.79
2018-07-16T11:33:02.324Z,100354.06
2018-07-16T11:34:05.981Z,100352.67
2018-07-16T11:35:09.510Z,100352.67
2018-07-16T11:36:13.129Z,100352.67
2018-07-16T11:37:16.562Z,100349.09
2018-07-16T11:38:20.013Z,100354.44
2018-07-16T11:39:23.460Z,100349.67
2018-07-16T11:40:26.868Z,100349.67
2018-07-16T11:41:30.307Z,100346.31
2018-07-16T11:42:33.725Z,100350.27
2018-07-16T11:43:37.113Z,100345.51
2018-07-16T11:44:40.512Z,100342.52
2018-07-16T11:45:44.027Z,100345.30
2018-07-16T11:46:47.441Z,100352.24
2018-07-16T11:47:50.925Z,100345.30
2018-07-16T11:48:54.317Z,100347.48
2018-07-16T11:49:57.714Z,100342.30
2018-07-16T11:51:01.130Z,100335.36
2018-07-16T11:52:04.619Z,100340.33
2018-07-16T11:53:08.142Z,100336.75
2018-07-16T11:54:11.562Z,100335.36
2018-07-16T11:55:15.120Z,100341.13
2018-07-16T11:56:18.575Z,100340.33
2018-07-16T11:57:22.020Z,100334.77
2018-07-16T11:58:25.414Z,100332.20
2018-07-16T11:59:28.864Z,100336.38
2018-07-16T12:00:32.272Z,100332.20
2018-07-16T12:01:35.720Z,100333.59
2018-07-16T12:02:39.121Z,100338.77
2018-07-16T12:03:42.499Z,100336.00
2018-07-16T12:04:45.921Z,100337.81